Terminal Aerodrome Forecast
Issued by NWS Sioux Falls, SD

Home | Current Version | Previous Version | Text Only | Print | Product List | Glossary On
Versions: 1 2 3 4 5 6 7 8 9 10 11 12 13 14 15 16 17
000
FTUS43 KFSD 301948 AAA
TAFHON
TAF AMD
KHON 301948Z 3020/0118 10007KT 6SM -SHRA FU SCT015 BKN080
     FM010000 13004KT 6SM FU SCT050 BKN140
     FM010900 17004KT 5SM BR BKN100
      TEMPO 0109/0113 4SM -SHRA BR BKN070
     FM011700 16008KT P6SM SCT045 BKN120=

USA.gov is the U.S. government's official web portal to all federal, state and local government web resources and services.